Time;durP1;ratioP1;P1;durP2;ratioP2;P2;SDS_P1;SDS_P2;PMS_P1;PMS_P2;Temp;Humidity;BMP_temperature;BMP_pressure;BME280_temperature;BME280_humidity;BME280_pressure;Samples;Min_cycle;Max_cycle;Signal;HPM_P1;HPM_P2
2023/01/31 00:00:01;;;;;;;6.95;4.75;;;;;;;-0.07;67.11;97880.69;5073976;28;20032;-61
2023/01/31 00:02:27;;;;;;;6.18;4.50;;;;;;;-0.18;67.12;97881.44;5073476;28;20043;-52
2023/01/31 00:04:52;;;;;;;6.43;4.20;;;;;;;-0.16;67.10;97884.81;5073653;28;20021;-52
2023/01/31 00:07:18;;;;;;;8.05;4.68;;;;;;;-0.15;67.33;97883.84;5073139;28;20046;-53
2023/01/31 00:09:43;;;;;;;7.68;4.53;;;;;;;-0.28;67.13;97877.75;5073717;28;20037;-56
2023/01/31 00:12:08;;;;;;;9.18;4.95;;;;;;;-0.21;67.11;97895.66;5073286;28;20020;-54
2023/01/31 00:14:34;;;;;;;5.90;4.25;;;;;;;-0.18;67.16;97871.78;5073528;28;20116;-51
2023/01/31 00:16:59;;;;;;;6.80;4.32;;;;;;;-0.22;67.09;97878.19;5073694;28;20417;-56
2023/01/31 00:19:25;;;;;;;6.85;4.68;;;;;;;-0.21;67.14;97881.66;5073551;28;20036;-56
2023/01/31 00:21:52;;;;;;;7.03;4.60;;;;;;;-0.18;67.30;97895.44;5072835;28;20017;-59
2023/01/31 00:24:17;;;;;;;8.23;4.93;;;;;;;-0.19;67.13;97888.50;5073523;28;20040;-56
2023/01/31 00:26:43;;;;;;;6.63;4.55;;;;;;;-0.14;66.61;97885.53;5073281;28;20082;-56
2023/01/31 00:29:09;;;;;;;7.70;4.38;;;;;;;-0.18;66.89;97890.19;5073161;28;20439;-53
2023/01/31 00:31:34;;;;;;;8.23;5.18;;;;;;;-0.17;66.61;97883.97;5071910;28;20452;-59
2023/01/31 00:34:00;;;;;;;6.43;4.38;;;;;;;-0.10;66.62;97880.91;5072878;28;20111;-58
2023/01/31 00:36:32;;;;;;;7.28;4.78;;;;;;;-0.09;66.55;97893.97;5071771;28;20363;-56
2023/01/31 00:39:00;;;;;;;7.07;4.90;;;;;;;-0.22;67.21;97878.19;5072950;28;20037;-56
2023/01/31 00:41:27;;;;;;;6.20;4.45;;;;;;;-0.16;66.70;97882.16;5072952;28;20037;-58
2023/01/31 00:43:52;;;;;;;9.10;5.25;;;;;;;-0.17;66.67;97889.22;5072837;28;20025;-59
2023/01/31 00:46:22;;;;;;;6.90;4.38;;;;;;;-0.13;66.40;97889.84;5073303;28;20074;-55
2023/01/31 00:48:48;;;;;;;6.55;4.78;;;;;;;-0.19;66.82;97882.38;5072114;28;20033;-56
2023/01/31 00:51:14;;;;;;;8.48;5.07;;;;;;;-0.36;66.86;97871.25;5072851;28;20033;-59
2023/01/31 00:53:40;;;;;;;7.03;4.88;;;;;;;-0.14;66.70;97906.56;5072569;28;20412;-57
2023/01/31 00:56:08;;;;;;;7.85;4.93;;;;;;;-0.10;66.48;97907.22;5072767;28;20029;-56
2023/01/31 00:58:34;;;;;;;7.50;5.00;;;;;;;-0.12;66.38;97904.72;5072574;28;20060;-54
2023/01/31 01:01:07;;;;;;;7.50;4.97;;;;;;;-0.12;66.70;97903.84;5073055;28;20442;-56
2023/01/31 01:03:33;;;;;;;8.77;5.13;;;;;;;-0.13;66.48;97896.91;5072635;28;20032;-56
2023/01/31 01:05:58;;;;;;;7.53;4.50;;;;;;;-0.12;66.35;97903.84;5071115;28;20032;-54
2023/01/31 01:08:24;;;;;;;7.50;4.65;;;;;;;-0.11;66.15;97897.66;5071210;28;20077;-55
2023/01/31 01:10:49;;;;;;;6.65;5.20;;;;;;;-0.04;66.38;97901.53;5072806;28;20035;-58
2023/01/31 01:13:15;;;;;;;8.57;5.00;;;;;;;-0.16;66.25;97893.53;5072427;28;20021;-56
2023/01/31 01:15:40;;;;;;;6.10;4.40;;;;;;;-0.03;66.23;97917.22;5072454;28;20107;-58
2023/01/31 01:18:07;;;;;;;7.28;4.80;;;;;;;-0.02;66.49;97910.16;5071976;28;20347;-60
2023/01/31 01:20:34;;;;;;;6.65;4.60;;;;;;;0.01;66.16;97909.97;5071983;28;20036;-57
2023/01/31 01:22:59;;;;;;;8.18;5.38;;;;;;;-0.07;66.42;97901.75;5072496;28;20436;-54
2023/01/31 01:25:25;;;;;;;8.68;5.20;;;;;;;-0.01;66.21;97915.34;5072648;28;20032;-55
2023/01/31 01:27:50;;;;;;;7.30;5.05;;;;;;;-0.04;66.49;97906.81;5072825;28;20064;-55
2023/01/31 01:30:16;;;;;;;8.27;5.35;;;;;;;-0.02;66.21;97918.06;5072384;28;20024;-54
2023/01/31 01:32:42;;;;;;;7.03;4.63;;;;;;;-0.10;66.33;97908.09;5072210;28;20473;-55
2023/01/31 01:35:08;;;;;;;7.15;4.65;;;;;;;-0.01;66.31;97912.72;5072473;28;20051;-54
2023/01/31 01:37:35;;;;;;;7.47;4.95;;;;;;;0.02;66.00;97906.41;5071127;28;20039;-54
2023/01/31 01:40:00;;;;;;;9.38;5.22;;;;;;;0.01;66.24;97915.25;5071944;28;20048;-56
2023/01/31 01:42:26;;;;;;;10.27;5.35;;;;;;;0.02;65.88;97914.28;5072008;28;20094;-53
2023/01/31 01:44:51;;;;;;;8.18;4.82;;;;;;;0.03;66.01;97915.97;5072762;28;20108;-54
2023/01/31 01:47:35;;;;;;;8.15;5.40;;;;;;;0.02;66.11;97922.19;5072160;28;20043;-54
2023/01/31 01:50:13;;;;;;;8.48;5.03;;;;;;;0.01;66.32;97919.66;5072122;28;20383;-56
2023/01/31 01:52:45;;;;;;;7.50;4.97;;;;;;;-0.05;65.99;97897.22;5072242;28;20040;-55
2023/01/31 01:55:19;;;;;;;8.00;5.05;;;;;;;0.09;65.96;97912.06;5072563;28;20111;-54
2023/01/31 01:57:48;;;;;;;6.80;4.70;;;;;;;0.05;66.34;97911.44;5071398;28;20051;-55
2023/01/31 02:00:18;;;;;;;9.18;5.50;;;;;;;0.04;66.14;97907.13;5072063;28;20037;-55
2023/01/31 02:02:46;;;;;;;8.35;5.13;;;;;;;0.08;65.93;97905.97;5072150;28;20032;-54
2023/01/31 02:05:15;;;;;;;9.18;5.47;;;;;;;0.10;65.93;97908.47;5071871;28;20051;-54
2023/01/31 02:07:41;;;;;;;8.70;5.53;;;;;;;0.06;65.61;97897.34;5072114;28;20365;-55
2023/01/31 02:10:21;;;;;;;8.48;6.00;;;;;;;0.13;65.98;97903.88;5072148;28;20112;-55
2023/01/31 02:12:47;;;;;;;7.68;5.03;;;;;;;0.05;65.99;97897.44;5072266;28;20036;-56
2023/01/31 02:15:13;;;;;;;8.45;5.80;;;;;;;0.08;65.78;97890.19;5072145;28;20346;-56
2023/01/31 02:17:38;;;;;;;8.07;5.70;;;;;;;0.10;65.65;97903.22;5071892;28;20039;-53
2023/01/31 02:20:20;;;;;;;8.77;5.47;;;;;;;0.10;66.05;97896.19;5071751;28;20033;-58
2023/01/31 02:23:20;;;;;;;7.50;5.68;;;;;;;0.11;65.77;97902.28;5072007;28;20365;-54
2023/01/31 02:25:59;;;;;;;10.65;5.28;;;;;;;0.17;65.52;97885.22;5067082;28;20040;-59
2023/01/31 02:28:24;;;;;;;8.50;5.45;;;;;;;0.16;65.02;97887.03;5072177;28;20024;-55
2023/01/31 02:31:03;;;;;;;8.48;5.68;;;;;;;0.17;65.46;97903.66;5073437;28;20359;-57
2023/01/31 02:33:53;;;;;;;7.22;5.43;;;;;;;0.14;65.60;97891.56;5075444;28;20036;-57
2023/01/31 02:36:34;;;;;;;8.85;5.82;;;;;;;0.13;65.67;97889.88;5075026;28;20037;-55
2023/01/31 02:42:05;;;;;;;8.57;5.25;;;;;;;0.19;65.34;97901.75;5075624;28;20040;-55
2023/01/31 02:45:00;;;;;;;8.60;5.68;;;;;;;0.25;65.51;97896.09;5074814;28;20040;-55
2023/01/31 02:47:51;;;;;;;8.35;5.40;;;;;;;0.20;65.00;97903.44;5074491;28;20356;-53
2023/01/31 02:50:19;;;;;;;9.88;6.30;;;;;;;0.25;64.65;97896.09;5075136;28;20037;-56
2023/01/31 02:53:09;;;;;;;9.20;5.68;;;;;;;0.26;65.27;97900.41;5075027;28;20032;-58
2023/01/31 02:58:27;;;;;;;12.20;6.40;;;;;;;-0.02;64.70;97862.81;5074620;28;20116;-57
2023/01/31 03:00:56;;;;;;;8.77;5.75;;;;;;;0.17;65.14;97906.28;5075048;28;20040;-56
2023/01/31 03:03:27;;;;;;;8.63;5.88;;;;;;;0.11;65.25;97902.28;5074794;28;20355;-55
2023/01/31 03:06:22;;;;;;;7.65;5.50;;;;;;;0.24;65.51;97905.75;5074881;28;20051;-55
2023/01/31 03:09:20;;;;;;;10.02;5.35;;;;;;;0.31;65.33;97898.28;5074119;28;20028;-56
2023/01/31 03:12:20;;;;;;;8.02;5.40;;;;;;;0.34;65.22;97895.44;5050198;28;20454;-54
2023/01/31 03:15:07;;;;;;;10.23;6.07;;;;;;;0.36;64.56;97906.69;5050605;28;20122;-57
2023/01/31 03:17:54;;;;;;;12.90;6.75;;;;;;;0.30;65.07;97903.66;5074680;28;20040;-57
2023/01/31 03:20:35;;;;;;;9.50;6.20;;;;;;;0.36;64.92;97914.59;5074537;28;20032;-55
2023/01/31 03:23:06;;;;;;;9.82;6.00;;;;;;;0.26;64.82;97914.38;5074186;28;20088;-57
2023/01/31 03:25:35;;;;;;;10.27;6.32;;;;;;;0.28;64.51;97916.94;5073423;28;20032;-53
2023/01/31 03:28:05;;;;;;;10.23;6.10;;;;;;;0.25;64.82;97915.34;5073654;28;20417;-61
2023/01/31 03:30:40;;;;;;;10.68;6.63;;;;;;;0.01;65.26;97886.31;5074536;28;20107;-60
2023/01/31 03:33:28;;;;;;;8.90;5.90;;;;;;;0.32;64.97;97922.81;5054448;28;20041;-53
2023/01/31 03:36:21;;;;;;;11.15;6.55;;;;;;;0.30;65.13;97919.44;5053227;28;20461;-53
2023/01/31 03:39:19;;;;;;;9.15;6.50;;;;;;;0.23;65.07;97929.53;5054172;28;20049;-54
2023/01/31 03:41:54;;;;;;;9.57;6.32;;;;;;;0.32;65.03;97938.59;5053342;28;20052;-56
2023/01/31 03:44:47;;;;;;;10.00;6.55;;;;;;;0.32;65.27;97921.03;5053941;28;20053;-52
2023/01/31 03:47:22;;;;;;;9.73;6.50;;;;;;;0.27;65.07;97929.22;5069537;28;20028;-54
2023/01/31 03:49:50;;;;;;;11.23;6.97;;;;;;;0.24;65.23;97932.06;5074344;28;20037;-56
2023/01/31 03:52:24;;;;;;;10.13;6.53;;;;;;;0.29;65.07;97939.66;5073896;28;20059;-54
2023/01/31 03:54:57;;;;;;;11.10;6.32;;;;;;;0.41;64.79;97933.53;5073847;28;20028;-58
2023/01/31 03:57:36;;;;;;;12.93;6.95;;;;;;;0.40;64.47;97920.50;5072505;28;20028;-55
2023/01/31 04:00:06;;;;;;;10.50;6.78;;;;;;;0.34;65.10;97921.75;5073083;28;20048;-56
2023/01/31 04:02:36;;;;;;;9.85;6.38;;;;;;;0.36;64.72;97929.53;5073110;28;20432;-58
2023/01/31 04:05:08;;;;;;;11.07;7.22;;;;;;;0.30;65.14;97938.72;5073906;28;20040;-55
2023/01/31 04:07:35;;;;;;;12.57;7.25;;;;;;;0.36;64.83;97938.28;5071316;28;20060;-51
2023/01/31 04:10:05;;;;;;;12.02;6.90;;;;;;;0.33;64.90;97950.81;5054109;28;20044;-56
2023/01/31 04:12:36;;;;;;;12.48;6.93;;;;;;;0.30;64.85;97929.97;5062524;28;20044;-52
2023/01/31 04:15:03;;;;;;;10.90;7.50;;;;;;;0.32;64.92;97928.94;5072670;28;20116;-56
2023/01/31 04:17:28;;;;;;;10.98;7.28;;;;;;;0.33;65.55;97941.13;5058798;28;20050;-53
2023/01/31 04:19:54;;;;;;;11.93;7.00;;;;;;;0.34;65.16;97932.28;5053570;28;20033;-55
2023/01/31 04:22:19;;;;;;;12.45;7.47;;;;;;;0.36;64.74;97945.31;5053072;28;20367;-54
2023/01/31 04:24:45;;;;;;;11.30;7.05;;;;;;;0.46;64.79;97949.03;5068758;28;20120;-55
2023/01/31 04:27:10;;;;;;;13.43;6.90;;;;;;;0.48;64.57;97954.16;5073172;28;20044;-53
2023/01/31 04:29:36;;;;;;;11.93;7.22;;;;;;;0.39;64.41;97943.34;5073088;28;20233;-57
2023/01/31 04:32:01;;;;;;;11.57;7.43;;;;;;;0.30;65.18;97946.63;5073037;28;20028;-55
2023/01/31 04:34:27;;;;;;;11.40;7.50;;;;;;;0.30;65.30;97951.88;5070885;28;20040;-54
2023/01/31 04:36:52;;;;;;;12.23;6.82;;;;;;;0.36;64.78;97961.97;5071772;28;20040;-53
2023/01/31 04:39:18;;;;;;;14.90;7.72;;;;;;;0.43;64.67;97962.41;5072499;28;20097;-53
2023/01/31 04:41:43;;;;;;;12.68;7.45;;;;;;;0.37;64.73;97962.84;5072880;28;20112;-53
2023/01/31 04:44:09;;;;;;;14.07;7.90;;;;;;;0.36;64.91;97969.88;5073059;28;20102;-56
2023/01/31 04:46:34;;;;;;;12.13;6.93;;;;;;;0.37;64.99;97960.22;5073107;28;20024;-62
2023/01/31 04:49:00;;;;;;;15.95;9.38;;;;;;;0.35;65.08;97965.56;5072316;28;20032;-57
2023/01/31 04:51:25;;;;;;;13.13;8.23;;;;;;;0.22;65.10;97944.50;5073095;28;20474;-57
2023/01/31 04:53:51;;;;;;;12.80;8.10;;;;;;;0.35;65.24;97976.09;5072759;28;20450;-57
2023/01/31 04:56:16;;;;;;;11.95;7.43;;;;;;;0.38;65.53;97981.16;5072786;28;20032;-52
2023/01/31 04:58:42;;;;;;;16.65;8.23;;;;;;;0.39;65.44;97977.56;5072903;28;20129;-52
2023/01/31 05:01:08;;;;;;;12.88;7.40;;;;;;;0.24;64.90;97947.00;5072944;28;20028;-54
2023/01/31 05:03:33;;;;;;;10.65;7.32;;;;;;;0.39;65.44;97969.66;5072850;28;20386;-55
2023/01/31 05:05:59;;;;;;;14.55;8.35;;;;;;;0.48;64.71;97967.34;5072506;28;20036;-62
2023/01/31 05:08:24;;;;;;;12.98;8.02;;;;;;;0.42;64.96;97961.56;5072355;28;20028;-62
2023/01/31 05:10:56;;;;;;;13.82;8.18;;;;;;;0.43;65.35;97965.88;5072115;28;20047;-63
2023/01/31 05:13:24;;;;;;;14.23;8.15;;;;;;;0.45;65.13;97976.31;5071779;28;20032;-63
2023/01/31 05:15:49;;;;;;;12.43;7.95;;;;;;;0.50;65.08;97983.91;5071671;28;20070;-62
2023/01/31 05:18:15;;;;;;;15.27;8.63;;;;;;;0.47;65.36;97984.94;5072046;28;20103;-61
2023/01/31 05:20:41;;;;;;;14.43;8.57;;;;;;;0.41;65.17;97994.09;5071960;28;20033;-62
2023/01/31 05:23:07;;;;;;;13.68;7.93;;;;;;;0.46;65.64;97982.41;5072424;28;20340;-62
2023/01/31 05:25:34;;;;;;;13.52;8.38;;;;;;;0.41;65.73;97986.19;5072535;28;20090;-62
2023/01/31 05:28:00;;;;;;;14.32;8.23;;;;;;;0.41;65.38;97991.47;5072157;28;20067;-62
2023/01/31 05:30:25;;;;;;;15.00;9.10;;;;;;;0.27;65.77;97967.88;5071504;28;20028;-61
2023/01/31 05:32:51;;;;;;;14.98;8.90;;;;;;;0.40;65.59;97989.78;5072017;28;20025;-62
2023/01/31 05:35:17;;;;;;;14.20;8.02;;;;;;;0.49;65.24;98005.91;5072211;28;20028;-63
2023/01/31 05:37:43;;;;;;;13.52;8.82;;;;;;;0.44;65.97;97990.41;5071832;28;20447;-63
2023/01/31 05:40:13;;;;;;;15.80;8.38;;;;;;;0.45;66.03;98000.00;5071623;28;20041;-62
2023/01/31 05:42:39;;;;;;;14.10;8.75;;;;;;;0.50;65.87;97995.25;5072186;28;20067;-65
2023/01/31 05:45:05;;;;;;;11.93;8.07;;;;;;;0.54;65.28;97993.25;5072343;28;20074;-60
2023/01/31 05:47:31;;;;;;;15.02;9.57;;;;;;;0.49;65.66;97987.47;5071413;28;20032;-61
2023/01/31 05:49:56;;;;;;;15.75;8.13;;;;;;;0.39;65.33;97972.28;5069764;28;20028;-60
2023/01/31 05:52:22;;;;;;;14.13;8.70;;;;;;;0.56;65.44;97999.28;5071055;28;20021;-63
2023/01/31 05:54:47;;;;;;;15.93;9.30;;;;;;;0.53;65.83;97994.22;5072460;28;20021;-62
2023/01/31 05:57:14;;;;;;;15.48;8.93;;;;;;;0.53;65.40;97996.84;5072061;28;20466;-59
2023/01/31 05:59:39;;;;;;;15.07;9.27;;;;;;;0.63;65.46;98007.59;5071589;28;20143;-62
2023/01/31 06:02:05;;;;;;;13.88;8.23;;;;;;;0.62;65.50;98003.28;5070686;28;20123;-62
2023/01/31 06:04:30;;;;;;;15.85;8.98;;;;;;;0.57;65.64;98009.69;5071528;28;20036;-62
2023/01/31 06:06:56;;;;;;;16.42;8.50;;;;;;;0.59;65.67;98017.50;5075007;28;20033;-62
2023/01/31 06:09:21;;;;;;;15.50;8.80;;;;;;;0.65;65.55;98014.44;5073813;28;20032;-60
2023/01/31 06:11:47;;;;;;;14.50;8.45;;;;;;;0.64;65.31;98012.75;5074455;28;20087;-62
2023/01/31 06:14:12;;;;;;;12.93;8.93;;;;;;;0.55;65.26;98016.03;5074947;28;20033;-62
2023/01/31 06:16:37;;;;;;;14.00;8.35;;;;;;;0.60;65.69;98019.16;5075389;28;20435;-61
2023/01/31 06:19:03;;;;;;;15.38;8.52;;;;;;;0.60;65.84;98023.59;5074620;28;20025;-62
2023/01/31 06:21:29;;;;;;;13.45;8.98;;;;;;;0.62;65.79;98021.72;5075126;28;20029;-62
2023/01/31 06:23:54;;;;;;;12.07;8.02;;;;;;;0.66;65.01;98029.28;5074947;28;20465;-58
2023/01/31 06:26:19;;;;;;;17.00;8.95;;;;;;;0.65;65.03;98027.59;5074064;28;20041;-53
2023/01/31 06:28:45;;;;;;;15.77;9.27;;;;;;;0.66;65.44;98031.91;5074779;28;20036;-57
2023/01/31 06:31:11;;;;;;;14.77;9.15;;;;;;;0.65;65.09;98030.22;5074511;28;20032;-57
2023/01/31 06:33:37;;;;;;;13.50;8.77;;;;;;;0.73;65.49;98039.41;5075722;28;20020;-52
2023/01/31 06:36:03;;;;;;;14.57;9.60;;;;;;;0.71;65.92;98037.69;5075110;28;20029;-53
2023/01/31 06:38:30;;;;;;;13.68;8.88;;;;;;;0.76;65.54;98040.03;5075116;28;20067;-61
2023/01/31 06:40:56;;;;;;;15.50;8.63;;;;;;;0.82;64.95;98042.22;5074816;28;20032;-56
2023/01/31 06:43:21;;;;;;;13.23;8.65;;;;;;;0.88;65.17;98040.13;5073909;28;20048;-59
2023/01/31 06:45:50;;;;;;;14.82;8.50;;;;;;;0.87;64.95;98046.34;5074832;28;20064;-69
2023/01/31 06:48:16;;;;;;;14.13;8.70;;;;;;;0.85;65.23;98057.00;5074862;28;20526;-59
2023/01/31 06:50:43;;;;;;;15.73;9.18;;;;;;;0.92;65.22;98063.50;5074887;28;20099;-60
2023/01/31 06:53:08;;;;;;;12.07;7.95;;;;;;;0.87;65.46;98062.16;5075386;28;20434;-57
2023/01/31 06:55:33;;;;;;;15.50;9.60;;;;;;;0.80;64.95;98041.50;5074955;28;20033;-56
2023/01/31 06:57:59;;;;;;;17.27;9.88;;;;;;;0.97;65.26;98061.44;5073681;28;20111;-56
2023/01/31 07:00:25;;;;;;;16.15;9.38;;;;;;;1.01;64.81;98062.03;5074900;28;20037;-59
2023/01/31 07:02:51;;;;;;;16.30;9.10;;;;;;;1.10;64.71;98071.09;5075043;28;20033;-59
2023/01/31 07:05:18;;;;;;;15.88;8.77;;;;;;;1.09;64.50;98069.41;5074237;28;20355;-55
2023/01/31 07:07:44;;;;;;;13.70;9.02;;;;;;;1.02;64.31;98078.69;5074657;28;20043;-54
2023/01/31 07:10:11;;;;;;;16.30;8.93;;;;;;;1.02;64.74;98079.53;5075003;28;20033;-56
2023/01/31 07:12:36;;;;;;;14.50;9.07;;;;;;;0.98;64.40;98072.78;5073286;28;20332;-56
2023/01/31 07:15:02;;;;;;;14.70;8.82;;;;;;;1.04;64.63;98076.81;5069275;28;20033;-59
2023/01/31 07:17:30;;;;;;;13.27;8.77;;;;;;;1.05;64.52;98083.75;5050590;28;20053;-58
2023/01/31 07:19:55;;;;;;;15.25;8.60;;;;;;;1.06;64.55;98082.81;5072025;28;20034;-59
2023/01/31 07:22:20;;;;;;;14.15;9.25;;;;;;;0.86;64.80;98063.94;5072256;28;20029;-57
2023/01/31 07:24:48;;;;;;;14.95;9.10;;;;;;;1.08;64.65;98088.81;5069694;28;20040;-50
2023/01/31 07:27:14;;;;;;;16.67;9.57;;;;;;;1.07;64.65;98092.41;5066089;28;20028;-54
2023/01/31 07:29:39;;;;;;;14.77;9.35;;;;;;;1.10;64.72;98095.69;5057297;28;20031;-54
2023/01/31 07:32:05;;;;;;;15.85;9.07;;;;;;;1.12;64.97;98079.72;5050177;28;20486;-55
2023/01/31 07:34:31;;;;;;;15.02;9.40;;;;;;;1.19;64.50;98091.53;5051863;28;20041;-56
2023/01/31 07:36:56;;;;;;;14.63;9.10;;;;;;;1.22;64.55;98095.75;5052176;28;20040;-55
2023/01/31 07:39:22;;;;;;;13.23;8.60;;;;;;;1.27;63.79;98093.63;5067889;28;20052;-55
2023/01/31 07:41:49;;;;;;;16.77;10.77;;;;;;;1.23;63.44;98105.34;5072385;28;20036;-54
2023/01/31 07:44:14;;;;;;;15.38;9.85;;;;;;;1.23;64.20;98098.28;5072895;28;20541;-53
2023/01/31 07:46:40;;;;;;;15.02;9.85;;;;;;;1.26;63.83;98099.84;5060004;28;20075;-57
2023/01/31 07:49:08;;;;;;;13.18;9.23;;;;;;;1.18;64.04;98087.22;5053873;28;20440;-58
2023/01/31 07:51:34;;;;;;;15.48;9.70;;;;;;;1.14;63.88;98083.09;5053445;28;20020;-59
2023/01/31 07:54:01;;;;;;;14.85;9.35;;;;;;;1.35;63.83;98122.09;5056880;28;20150;-58
2023/01/31 07:56:26;;;;;;;15.00;9.35;;;;;;;1.35;63.21;98111.56;5073276;28;20037;-56
2023/01/31 07:58:52;;;;;;;16.27;9.52;;;;;;;1.32;64.00;98117.88;5072322;28;20099;-54
2023/01/31 08:04:11;;;;;;;15.70;9.45;;;;;;;1.32;64.16;98122.31;5072644;28;20166;-53
2023/01/31 08:06:38;;;;;;;15.68;9.70;;;;;;;1.36;64.30;98135.19;5072890;28;20032;-55
2023/01/31 08:09:04;;;;;;;18.52;9.43;;;;;;;1.40;63.46;98126.13;5073707;28;20032;-59
2023/01/31 08:11:29;;;;;;;14.18;9.48;;;;;;;1.40;63.35;98125.25;5055634;28;20371;-55
2023/01/31 08:13:55;;;;;;;15.82;8.98;;;;;;;1.41;64.00;98129.56;5052708;28;20060;-54
2023/01/31 08:16:21;;;;;;;15.77;9.75;;;;;;;1.47;63.87;98139.72;5052327;28;20037;-53
2023/01/31 08:18:47;;;;;;;16.10;9.88;;;;;;;1.50;63.20;98133.38;5069106;28;20028;-54
2023/01/31 08:21:14;;;;;;;15.15;10.18;;;;;;;1.51;63.72;98137.69;5064029;28;20033;-53
2023/01/31 08:23:40;;;;;;;16.40;9.57;;;;;;;1.51;63.16;98142.97;5069472;28;20028;-51
2023/01/31 08:26:23;;;;;;;16.20;9.38;;;;;;;1.67;62.88;98146.22;5055759;28;20371;-55
2023/01/31 08:28:50;;;;;;;20.35;8.73;;;;;;;1.54;63.09;98151.50;5051631;28;20028;-59
2023/01/31 08:31:19;;;;;;;12.73;9.15;;;;;;;1.52;63.65;98149.91;5056855;28;20111;-56
2023/01/31 08:33:45;;;;;;;15.05;9.20;;;;;;;1.55;63.22;98160.25;5072321;28;20031;-65
2023/01/31 08:36:31;;;;;;;18.75;9.45;;;;;;;1.64;63.34;98156.97;5071926;28;20036;-60
2023/01/31 08:38:57;;;;;;;16.00;9.25;;;;;;;1.55;63.07;98136.50;5071198;28;20395;-62
2023/01/31 08:41:24;;;;;;;14.30;8.82;;;;;;;1.61;63.23;98153.72;5072215;28;20043;-57
2023/01/31 08:43:50;;;;;;;14.85;8.60;;;;;;;1.63;62.55;98149.16;5071845;28;20048;-53
2023/01/31 08:46:16;;;;;;;15.40;8.88;;;;;;;1.64;62.81;98159.63;5070540;28;20029;-62
2023/01/31 08:48:42;;;;;;;16.92;9.88;;;;;;;1.58;62.93;98150.34;5072210;28;20032;-57
2023/01/31 08:51:10;;;;;;;13.93;9.32;;;;;;;1.58;62.95;98152.16;5070970;28;20024;-56
2023/01/31 08:53:43;;;;;;;17.08;9.25;;;;;;;1.61;62.77;98133.47;5071971;28;20237;-57
2023/01/31 08:56:10;;;;;;;17.80;9.60;;;;;;;1.69;63.01;98152.22;5072313;28;20124;-55
2023/01/31 08:58:38;;;;;;;16.13;9.65;;;;;;;1.71;62.60;98155.59;5071695;28;20763;-58
2023/01/31 09:01:06;;;;;;;15.57;9.40;;;;;;;1.77;62.74;98145.53;5070345;28;20032;-53
2023/01/31 09:03:32;;;;;;;14.27;9.52;;;;;;;1.75;62.30;98143.03;5051649;28;20043;-57
2023/01/31 09:06:03;;;;;;;16.70;9.50;;;;;;;1.77;62.68;98142.91;5052083;28;20060;-57
2023/01/31 09:08:29;;;;;;;16.85;9.27;;;;;;;1.77;62.16;98143.75;5051624;28;20515;-54
2023/01/31 09:10:55;;;;;;;14.93;9.73;;;;;;;1.81;62.26;98144.38;5051494;28;20111;-56
2023/01/31 09:13:21;;;;;;;15.07;9.55;;;;;;;1.75;62.64;98148.31;5057399;28;20028;-55
2023/01/31 09:15:59;;;;;;;15.50;9.50;;;;;;;1.80;62.75;98142.69;5071984;28;20382;-52
2023/01/31 09:18:25;;;;;;;13.65;8.15;;;;;;;1.77;62.20;98153.47;5070537;28;20067;-58
2023/01/31 09:20:50;;;;;;;16.55;9.82;;;;;;;1.59;62.99;98124.81;5071675;28;20123;-57
2023/01/31 09:23:15;;;;;;;14.73;9.63;;;;;;;1.72;62.47;98146.72;5072223;28;20358;-56
2023/01/31 09:25:41;;;;;;;14.90;9.70;;;;;;;1.72;62.51;98148.53;5072040;28;20060;-57
2023/01/31 09:28:06;;;;;;;13.30;9.05;;;;;;;1.80;62.44;98146.19;5071667;28;20481;-54
2023/01/31 09:30:32;;;;;;;14.07;9.25;;;;;;;1.74;63.03;98148.41;5071298;28;20086;-55
2023/01/31 09:33:00;;;;;;;13.30;8.23;;;;;;;1.61;62.78;98109.72;5070675;28;20078;-54
2023/01/31 09:35:25;;;;;;;15.65;9.77;;;;;;;1.85;62.70;98144.03;5070219;28;20107;-58
2023/01/31 09:37:51;;;;;;;19.05;9.55;;;;;;;1.97;61.80;98128.28;5071777;28;20170;-53
2023/01/31 09:40:22;;;;;;;16.25;9.95;;;;;;;2.02;62.08;98123.50;5071694;28;20044;-58
2023/01/31 09:42:51;;;;;;;13.98;9.15;;;;;;;1.92;62.00;98099.59;5075444;28;20037;-52
2023/01/31 09:45:33;;;;;;;15.93;9.13;;;;;;;2.15;61.34;98094.41;5075458;28;20032;-59
2023/01/31 09:48:00;;;;;;;16.17;9.80;;;;;;;2.36;61.37;98142.16;5072772;28;20708;-55
2023/01/31 09:50:29;;;;;;;19.30;9.40;;;;;;;2.39;60.42;98133.16;5069404;28;20443;-59
2023/01/31 09:52:54;;;;;;;17.83;9.93;;;;;;;2.43;60.62;98140.75;5055947;28;20043;-54
2023/01/31 09:55:35;;;;;;;15.82;9.52;;;;;;;2.48;60.97;98150.13;5074931;28;20032;-58
2023/01/31 09:58:06;;;;;;;20.08;9.90;;;;;;;2.44;60.63;98137.16;5075157;28;20021;-54
2023/01/31 10:00:45;;;;;;;16.00;9.85;;;;;;;2.54;60.53;98141.75;5074339;28;20457;-55
2023/01/31 10:03:52;;;;;;;15.85;9.50;;;;;;;2.64;60.50;98140.09;5075291;28;20037;-62
2023/01/31 10:06:57;;;;;;;14.65;9.40;;;;;;;2.71;60.80;98136.03;5037651;28;20097;-58
2023/01/31 10:09:30;;;;;;;13.95;9.43;;;;;;;2.77;59.81;98153.22;5033841;28;20044;-54
2023/01/31 10:12:16;;;;;;;18.95;9.95;;;;;;;2.91;59.70;98148.69;5074115;28;20103;-53
2023/01/31 10:14:57;;;;;;;14.30;8.60;;;;;;;2.80;59.45;98144.22;5073398;28;20090;-56
2023/01/31 10:17:45;;;;;;;17.65;9.40;;;;;;;2.73;60.28;98152.63;5069895;28;20037;-54
2023/01/31 10:20:43;;;;;;;19.15;9.80;;;;;;;2.64;60.66;98150.66;5055093;28;20036;-55
2023/01/31 10:23:22;;;;;;;15.30;9.15;;;;;;;2.70;60.04;98167.84;5055077;28;20067;-54
2023/01/31 10:25:53;;;;;;;17.80;9.40;;;;;;;2.72;59.74;98165.94;5072967;28;20466;-60
2023/01/31 10:28:22;;;;;;;17.65;9.23;;;;;;;2.68;59.95;98165.34;5075376;28;20029;-57
2023/01/31 10:30:53;;;;;;;15.65;10.00;;;;;;;2.68;60.12;98159.22;5075320;28;20101;-60
2023/01/31 10:33:34;;;;;;;14.18;8.75;;;;;;;2.64;60.11;98171.78;5074421;28;20120;-53
2023/01/31 10:36:05;;;;;;;15.77;9.70;;;;;;;2.56;59.89;98168.88;5075370;28;20093;-52
2023/01/31 10:38:39;;;;;;;14.85;9.30;;;;;;;2.58;60.17;98166.97;5074269;28;20067;-56
2023/01/31 10:41:15;;;;;;;16.73;10.02;;;;;;;2.65;60.19;98170.00;5073662;28;20051;-55
2023/01/31 10:43:56;;;;;;;16.77;10.18;;;;;;;2.65;60.38;98175.28;5074004;28;20072;-56
2023/01/31 10:46:22;;;;;;;17.83;9.68;;;;;;;2.57;59.72;98167.94;5073946;28;20363;-56
2023/01/31 10:48:47;;;;;;;19.10;9.23;;;;;;;2.59;60.38;98160.72;5055147;28;20032;-56
2023/01/31 10:52:05;;;;;;;14.35;9.02;;;;;;;2.76;60.16;98171.84;5053431;28;20102;-55
2023/01/31 10:54:36;;;;;;;18.02;10.00;;;;;;;2.76;59.73;98161.28;5029646;28;20041;-53
2023/01/31 10:57:02;;;;;;;15.35;10.05;;;;;;;2.75;59.61;98176.28;5053388;28;20125;-58
2023/01/31 10:59:35;;;;;;;15.75;9.43;;;;;;;2.84;59.65;98170.31;5053423;28;20064;-55
2023/01/31 11:02:01;;;;;;;14.02;9.10;;;;;;;2.78;59.44;98180.50;5053194;28;20033;-54
2023/01/31 11:04:42;;;;;;;18.98;9.85;;;;;;;2.60;59.95;98141.28;5052923;28;20113;-58
2023/01/31 11:07:08;;;;;;;14.90;9.63;;;;;;;2.72;59.62;98176.50;5052205;28;20208;-58
2023/01/31 11:09:45;;;;;;;15.02;9.50;;;;;;;2.79;60.07;98182.19;5070804;28;20410;-60
2023/01/31 11:12:11;;;;;;;16.48;9.38;;;;;;;2.77;59.78;98174.38;5072872;28;20036;-55
2023/01/31 11:14:36;;;;;;;14.20;9.43;;;;;;;2.81;59.42;98175.84;5073169;28;20035;-55
2023/01/31 11:17:23;;;;;;;15.02;9.68;;;;;;;2.80;60.05;98183.88;5072657;28;20028;-57
2023/01/31 11:19:56;;;;;;;14.13;9.15;;;;;;;2.62;60.00;98176.34;5073193;28;20116;-58
2023/01/31 11:22:30;;;;;;;17.15;9.20;;;;;;;2.49;59.91;98143.91;5072077;28;20098;-53
2023/01/31 11:24:57;;;;;;;15.18;9.07;;;;;;;2.58;60.28;98181.03;5073307;28;20029;-58
2023/01/31 11:27:35;;;;;;;12.88;8.80;;;;;;;2.60;60.03;98166.88;5072232;28;20035;-63
2023/01/31 11:30:03;;;;;;;13.68;9.00;;;;;;;2.52;59.67;98170.09;5073503;28;20032;-62
2023/01/31 11:32:35;;;;;;;19.13;9.60;;;;;;;2.52;60.21;98175.38;5071479;28;20170;-62
2023/01/31 11:35:03;;;;;;;17.17;9.68;;;;;;;2.47;59.92;98162.50;5059300;28;20056;-61
2023/01/31 11:37:30;;;;;;;15.18;9.70;;;;;;;2.49;59.92;98167.66;5052751;28;20051;-62
2023/01/31 11:40:25;;;;;;;16.13;8.38;;;;;;;2.57;60.10;98162.66;5008065;28;1306799;-61
2023/01/31 11:42:52;;;;;;;17.77;9.18;;;;;;;2.64;60.21;98174.44;5052663;28;20037;-62
2023/01/31 11:45:26;;;;;;;13.70;8.60;;;;;;;2.69;59.55;98166.19;5053014;28;20036;-66
2023/01/31 11:47:54;;;;;;;13.27;8.82;;;;;;;2.70;59.10;98168.72;5054748;28;20040;-64
2023/01/31 11:50:42;;;;;;;16.15;9.38;;;;;;;2.82;59.67;98176.66;5073790;28;20044;-62
2023/01/31 11:53:19;;;;;;;16.13;8.75;;;;;;;2.77;59.34;98174.38;5072622;28;20032;-61
2023/01/31 11:55:46;;;;;;;13.07;8.27;;;;;;;2.51;59.75;98178.97;5073382;28;20417;-60